Time;durP1;ratioP1;P1;durP2;ratioP2;P2;SDS_P1;SDS_P2;PMS_P1;PMS_P2;Temp;Humidity;BMP_temperature;BMP_pressure;BME280_temperature;BME280_humidity;BME280_pressure;Samples;Min_cycle;Max_cycle;Signal;HPM_P1;HPM_P2
2023/07/01 00:01:54;;;;;;;5.93;2.55;;;;;;;22.56;70.88;-18632.94;5057903;28;20258;-76
2023/07/01 00:04:20;;;;;;;8.60;2.20;;;;;;;22.38;72.50;-18628.06;5066649;28;20044;-76
2023/07/01 00:06:45;;;;;;;7.25;2.50;;;;;;;22.27;70.87;-18625.34;5054173;28;20037;-76
2023/07/01 00:09:10;;;;;;;5.95;2.65;;;;;;;22.33;70.94;-18626.84;5048308;28;20072;-76
2023/07/01 00:11:37;;;;;;;9.00;2.15;;;;;;;22.17;68.82;-18622.50;5061182;28;20040;-76
2023/07/01 00:14:02;;;;;;;6.53;2.08;;;;;;;22.14;67.87;-18621.81;5070807;28;20511;-77
2023/07/01 00:16:28;;;;;;;4.05;2.58;;;;;;;22.20;68.25;-18623.44;5049549;28;20044;-76
2023/07/01 00:18:53;;;;;;;8.68;2.25;;;;;;;22.13;68.05;-18621.41;5074598;28;20567;-76
2023/07/01 00:21:18;;;;;;;6.30;2.30;;;;;;;22.10;67.64;-18620.72;5066293;28;20451;-76
2023/07/01 00:23:44;;;;;;;4.97;2.22;;;;;;;22.00;67.57;-18618.13;5068419;28;20062;-79
2023/07/01 00:26:09;;;;;;;7.05;2.22;;;;;;;22.13;68.45;-18621.41;5067066;28;20040;-75
2023/07/01 00:28:35;;;;;;;6.00;2.15;;;;;;;22.18;69.84;-18622.91;5063506;28;20094;-76
2023/07/01 00:31:00;;;;;;;5.85;2.53;;;;;;;22.20;71.36;-18623.44;5056593;28;20071;-77
2023/07/01 00:33:25;;;;;;;7.50;2.80;;;;;;;22.15;72.91;-18621.94;5065075;28;20560;-76
2023/07/01 00:35:51;;;;;;;7.95;3.50;;;;;;;22.14;74.71;-18621.81;5064097;28;20045;-76
2023/07/01 00:38:16;;;;;;;6.88;3.33;;;;;;;22.09;77.25;-18620.59;5067697;28;20044;-77
2023/07/01 00:40:41;;;;;;;6.53;3.13;;;;;;;22.02;78.92;-18618.53;5056734;28;20051;-76
2023/07/01 00:43:07;;;;;;;7.40;3.47;;;;;;;22.06;80.33;-18619.63;5066884;28;20167;-76
2023/07/01 00:45:32;;;;;;;9.02;3.92;;;;;;;22.07;80.99;-18619.91;5058820;28;20203;-76
2023/07/01 00:47:58;;;;;;;7.22;4.20;;;;;;;21.97;82.76;-18617.19;5063610;28;20048;-76
2023/07/01 00:50:23;;;;;;;6.03;3.65;;;;;;;21.98;84.01;-18617.47;5057401;28;20646;-77
2023/07/01 00:52:49;;;;;;;9.10;4.05;;;;;;;21.91;85.32;-18615.56;5065164;28;20055;-77
2023/07/01 00:55:15;;;;;;;9.23;4.00;;;;;;;21.87;86.09;-18614.59;5063956;28;20064;-75
2023/07/01 00:57:40;;;;;;;6.78;4.28;;;;;;;21.79;87.32;-18612.56;5063908;28;20141;-76
2023/07/01 01:00:10;;;;;;;9.27;4.32;;;;;;;21.79;88.39;-18612.44;5067147;28;20037;-77
2023/07/01 01:02:51;;;;;;;7.38;4.25;;;;;;;21.85;87.73;-18614.19;5064708;28;20722;-77
2023/07/01 01:05:20;;;;;;;11.20;4.47;;;;;;;21.83;88.76;-18613.53;5067367;28;20086;-78
2023/07/01 01:07:59;;;;;;;7.88;4.50;;;;;;;21.71;90.03;-18610.41;5068086;28;20544;-75
2023/07/01 01:10:25;;;;;;;;;;;;;;;21.97;87.39;-18617.19;5058449;28;20032;-76
2023/07/01 01:12:55;;;;;;;7.45;4.13;;;;;;;21.90;87.83;-18615.44;5068410;28;19919;-76
2023/07/01 01:15:20;;;;;;;9.35;4.53;;;;;;;21.63;90.30;-18608.34;5060190;28;20052;-75
2023/07/01 01:17:48;;;;;;;10.73;4.28;;;;;;;21.64;90.77;-18608.50;5068994;28;20055;-76
2023/07/01 01:20:20;;;;;;;9.55;4.70;;;;;;;21.60;90.96;-18607.53;5068798;28;20491;-75
2023/07/01 01:23:02;;;;;;;8.63;4.22;;;;;;;21.63;90.09;-18608.22;5061610;28;20047;-77
2023/07/01 01:25:42;;;;;;;9.43;3.95;;;;;;;21.57;89.31;-18606.59;5069868;28;20470;-76
2023/07/01 01:28:09;;;;;;;6.07;3.88;;;;;;;21.70;88.87;-18610.13;5049753;28;20037;-76
2023/07/01 01:30:34;;;;;;;8.65;3.80;;;;;;;21.58;88.08;-18606.88;5051952;28;20065;-75
2023/07/01 01:33:01;;;;;;;7.70;4.00;;;;;;;21.63;87.44;-18608.22;5070690;28;20457;-76
2023/07/01 01:35:27;;;;;;;7.40;4.00;;;;;;;21.65;87.83;-18608.75;5062932;28;20932;-77
2023/07/01 01:38:27;;;;;;;5.38;3.47;;;;;;;21.63;87.38;-18608.22;5065229;28;20071;-76
2023/07/01 01:41:14;;;;;;;6.78;3.80;;;;;;;21.66;87.07;-18609.03;5027756;28;20171;-76
2023/07/01 01:43:48;;;;;;;6.18;3.55;;;;;;;21.69;84.08;-18609.72;5054137;28;20404;-76
2023/07/01 01:46:17;;;;;;;7.05;3.78;;;;;;;21.62;84.36;-18607.94;5062826;28;20516;-76
2023/07/01 01:48:42;;;;;;;6.13;3.60;;;;;;;21.65;83.80;-18608.63;5063068;28;20175;-76
2023/07/01 01:51:09;;;;;;;6.78;3.42;;;;;;;21.71;82.69;-18610.41;5064269;28;20673;-76
2023/07/01 01:53:38;;;;;;;6.72;3.20;;;;;;;21.70;82.88;-18610.00;5076711;28;20044;-76
2023/07/01 01:56:04;;;;;;;6.28;3.28;;;;;;;21.60;83.98;-18607.41;5055327;28;20455;-76
2023/07/01 01:58:29;;;;;;;6.88;3.45;;;;;;;21.62;84.25;-18607.94;5060754;28;20101;-76
2023/07/01 02:00:58;;;;;;;8.57;3.85;;;;;;;21.76;83.60;-18611.75;5076911;28;20544;-76
2023/07/01 02:03:26;;;;;;;8.03;4.10;;;;;;;21.79;83.54;-18612.56;5066554;28;20097;-77
2023/07/01 02:05:51;;;;;;;10.43;3.63;;;;;;;21.81;84.00;-18613.13;5058052;28;20116;-76
2023/07/01 02:08:17;;;;;;;7.00;3.80;;;;;;;21.72;85.49;-18610.66;5058486;28;20040;-76
2023/07/01 02:10:42;;;;;;;6.63;3.60;;;;;;;21.71;85.90;-18610.41;5059692;28;20041;-76
2023/07/01 02:13:07;;;;;;;4.68;3.40;;;;;;;21.66;86.18;-18609.03;5060253;28;20453;-76
2023/07/01 02:15:33;;;;;;;8.38;3.78;;;;;;;21.65;87.27;-18608.75;5060114;28;20080;-76
2023/07/01 02:17:58;;;;;;;6.85;3.60;;;;;;;21.68;87.20;-18609.56;5064078;28;20091;-75
2023/07/01 02:20:23;;;;;;;6.18;3.95;;;;;;;21.71;86.92;-18610.25;5062522;28;20032;-75
2023/07/01 02:22:49;;;;;;;6.93;3.70;;;;;;;21.52;88.65;-18605.38;5057047;28;20045;-76
2023/07/01 02:25:14;;;;;;;5.57;3.25;;;;;;;21.58;87.43;-18607.00;5070308;28;20044;-76
2023/07/01 02:27:40;;;;;;;7.43;3.33;;;;;;;21.55;86.76;-18606.19;5074978;28;20404;-76
2023/07/01 02:30:06;;;;;;;7.60;4.07;;;;;;;21.61;85.45;-18607.81;5053859;28;20101;-76
2023/07/01 02:32:32;;;;;;;8.07;3.55;;;;;;;21.67;83.07;-18609.19;5059992;28;20125;-76
2023/07/01 02:34:57;;;;;;;8.07;4.47;;;;;;;21.67;81.31;-18609.19;5062274;28;20400;-77
2023/07/01 02:37:22;;;;;;;5.47;2.90;;;;;;;21.73;78.47;-18610.94;5059636;28;20051;-76
2023/07/01 02:39:48;;;;;;;5.57;2.63;;;;;;;21.77;77.23;-18612.03;5060942;28;20040;-76
2023/07/01 02:42:19;;;;;;;6.43;2.88;;;;;;;21.86;74.77;-18614.47;5060978;28;20059;-77
2023/07/01 02:44:44;;;;;;;5.75;3.10;;;;;;;21.86;74.14;-18614.34;5064171;28;20036;-76
2023/07/01 02:47:10;;;;;;;6.38;2.30;;;;;;;21.96;72.61;-18617.06;5056836;28;20044;-75
2023/07/01 02:49:35;;;;;;;5.82;2.50;;;;;;;21.91;72.06;-18615.56;5059901;28;20630;-76
2023/07/01 02:52:00;;;;;;;4.93;2.20;;;;;;;21.84;71.20;-18613.94;5062719;28;20044;-76
2023/07/01 02:54:26;;;;;;;5.35;2.38;;;;;;;21.96;70.60;-18616.91;5061920;28;20051;-76
2023/07/01 02:56:51;;;;;;;5.63;2.50;;;;;;;21.92;72.14;-18615.81;5058497;28;20064;-77
2023/07/01 02:59:16;;;;;;;4.35;2.20;;;;;;;21.94;70.49;-18616.50;5057479;28;20072;-77
2023/07/01 03:01:44;;;;;;;7.15;2.38;;;;;;;21.89;70.84;-18615.00;5062062;28;20036;-76
2023/07/01 03:04:11;;;;;;;4.70;2.67;;;;;;;21.82;71.95;-18613.38;5064989;28;20526;-75
2023/07/01 03:06:37;;;;;;;5.50;2.47;;;;;;;21.88;71.24;-18614.88;5061507;28;20828;-78
2023/07/01 03:09:07;;;;;;;5.65;2.90;;;;;;;21.80;72.26;-18612.84;5058503;28;20565;-76
2023/07/01 03:11:36;;;;;;;4.90;3.08;;;;;;;21.86;72.32;-18614.47;5062835;28;20453;-75
2023/07/01 03:14:02;;;;;;;5.15;3.38;;;;;;;21.99;72.27;-18617.72;5061979;28;20564;-76
2023/07/01 03:16:28;;;;;;;6.45;2.70;;;;;;;22.10;71.95;-18620.72;5059806;28;20040;-77
2023/07/01 03:18:54;;;;;;;4.25;2.70;;;;;;;21.85;73.88;-18614.06;5063631;28;20040;-76
2023/07/01 03:21:19;;;;;;;4.35;2.42;;;;;;;21.79;74.25;-18612.56;5064154;28;20042;-76
2023/07/01 03:23:45;;;;;;;6.85;2.25;;;;;;;21.74;74.95;-18611.06;5051099;28;20431;-76
2023/07/01 03:26:10;;;;;;;5.78;2.33;;;;;;;21.76;74.96;-18611.63;5058886;28;20067;-77
2023/07/01 03:28:35;;;;;;;4.53;2.30;;;;;;;21.70;76.18;-18610.13;5062270;28;20044;-76
2023/07/01 03:31:01;;;;;;;4.72;2.10;;;;;;;21.73;75.60;-18610.94;5058031;28;20135;-76
2023/07/01 03:33:26;;;;;;;4.10;2.47;;;;;;;21.79;75.22;-18612.56;5064372;28;20075;-77
2023/07/01 03:35:51;;;;;;;5.10;2.13;;;;;;;21.78;76.23;-18612.31;5059855;28;20132;-76
2023/07/01 03:38:17;;;;;;;5.45;2.50;;;;;;;21.66;77.35;-18608.91;5062779;28;20075;-77
2023/07/01 03:40:42;;;;;;;4.70;2.17;;;;;;;21.69;77.34;-18609.72;5053836;28;20047;-77
2023/07/01 03:43:07;;;;;;;3.83;2.30;;;;;;;21.72;77.39;-18610.66;5057448;28;20648;-76
2023/07/01 03:45:33;;;;;;;4.88;2.40;;;;;;;21.70;77.39;-18610.13;5064274;28;20979;-76
2023/07/01 03:47:58;;;;;;;7.38;2.60;;;;;;;21.86;76.62;-18614.47;5068164;28;20094;-75
2023/07/01 03:50:23;;;;;;;6.72;2.60;;;;;;;21.77;76.90;-18612.03;5059708;28;20061;-76
2023/07/01 03:52:49;;;;;;;5.70;2.80;;;;;;;21.68;78.44;-18609.56;5065565;28;20114;-76
2023/07/01 03:55:14;;;;;;;7.50;2.63;;;;;;;21.59;79.85;-18607.28;5066755;28;20041;-75
2023/07/01 03:57:39;;;;;;;5.45;2.45;;;;;;;21.76;79.09;-18611.75;5059442;28;20040;-76
2023/07/01 04:00:17;;;;;;;6.60;2.58;;;;;;;21.69;79.68;-18609.84;5058918;28;20037;-76
2023/07/01 04:02:43;;;;;;;5.20;2.50;;;;;;;21.78;79.29;-18612.16;5060077;28;20041;-76
2023/07/01 04:05:11;;;;;;;5.70;2.20;;;;;;;21.61;80.53;-18607.81;5066697;28;20047;-76
2023/07/01 04:07:41;;;;;;;6.27;2.77;;;;;;;21.67;80.76;-18609.31;5065801;28;20043;-76
2023/07/01 04:10:07;;;;;;;9.18;2.70;;;;;;;21.59;82.32;-18607.13;5057817;28;20090;-76
2023/07/01 04:12:33;;;;;;;5.78;2.53;;;;;;;21.55;83.49;-18606.03;5076090;28;20143;-76
2023/07/01 04:14:59;;;;;;;5.68;2.97;;;;;;;21.62;82.78;-18607.94;5061025;28;20060;-79
2023/07/01 04:17:25;;;;;;;6.57;3.00;;;;;;;21.55;83.78;-18606.03;5068546;28;20044;-76
2023/07/01 04:19:50;;;;;;;5.57;2.60;;;;;;;21.55;84.28;-18606.19;5059718;28;20484;-75
2023/07/01 04:22:15;;;;;;;6.03;2.47;;;;;;;21.56;83.88;-18606.44;5063043;28;20040;-79
2023/07/01 04:24:41;;;;;;;4.82;2.63;;;;;;;21.46;85.31;-18603.59;5064802;28;20048;-76
2023/07/01 04:27:06;;;;;;;8.20;3.05;;;;;;;21.58;84.53;-18606.88;5068725;28;20036;-76
2023/07/01 04:29:31;;;;;;;8.00;3.03;;;;;;;21.45;85.87;-18603.31;5062663;28;20045;-76
2023/07/01 04:31:57;;;;;;;6.25;2.58;;;;;;;21.48;86.09;-18604.28;5059495;28;20131;-76
2023/07/01 04:34:22;;;;;;;5.30;2.45;;;;;;;21.50;86.98;-18604.81;5076781;28;20045;-76
2023/07/01 04:36:47;;;;;;;7.32;2.97;;;;;;;21.43;87.56;-18602.78;5065730;28;20037;-76
2023/07/01 04:39:14;;;;;;;5.88;2.17;;;;;;;21.35;88.72;-18600.88;5059266;28;20067;-76
2023/07/01 04:41:39;;;;;;;5.88;2.70;;;;;;;21.54;87.55;-18605.78;5064099;28;20041;-76
2023/07/01 04:44:05;;;;;;;5.22;2.80;;;;;;;21.47;89.11;-18603.88;5057184;28;20048;-76
2023/07/01 04:46:32;;;;;;;9.00;2.47;;;;;;;21.50;89.75;-18604.69;5057589;28;20128;-76
2023/07/01 04:48:59;;;;;;;5.00;2.17;;;;;;;21.43;92.00;-18602.78;5061898;28;20047;-76
2023/07/01 04:51:25;;;;;;;6.28;2.65;;;;;;;21.44;92.76;-18603.06;5062948;28;20033;-76
2023/07/01 04:53:50;;;;;;;5.18;2.55;;;;;;;21.56;92.35;-18606.31;5059442;28;20292;-78
2023/07/01 04:56:16;;;;;;;5.90;2.22;;;;;;;21.54;92.54;-18605.78;5063709;28;20090;-78
2023/07/01 04:58:41;;;;;;;5.43;2.17;;;;;;;21.54;93.18;-18605.78;5062310;28;20083;-78
2023/07/01 05:01:07;;;;;;;4.40;2.00;;;;;;;21.61;93.29;-18607.81;5065398;28;20064;-78
2023/07/01 05:03:32;;;;;;;3.67;1.80;;;;;;;21.38;96.07;-18601.69;5059711;28;20048;-78
2023/07/01 05:05:58;;;;;;;4.88;2.55;;;;;;;21.50;96.21;-18604.69;5061706;28;20385;-78
2023/07/01 05:08:23;;;;;;;6.75;2.50;;;;;;;21.71;93.79;-18610.25;5061626;28;20470;-78
2023/07/01 05:10:49;;;;;;;3.75;2.08;;;;;;;21.61;94.43;-18607.81;5061459;28;20086;-78
2023/07/01 05:13:14;;;;;;;4.93;1.80;;;;;;;21.60;95.01;-18607.41;5066339;28;20044;-78
2023/07/01 05:15:40;;;;;;;3.65;2.05;;;;;;;21.46;96.08;-18603.59;5061646;28;20127;-78
2023/07/01 05:18:06;;;;;;;5.35;2.38;;;;;;;21.65;94.88;-18608.63;5064366;28;20047;-79
2023/07/01 05:20:31;;;;;;;8.52;2.20;;;;;;;21.61;94.95;-18607.81;5055590;28;20040;-79
2023/07/01 05:22:56;;;;;;;3.63;1.70;;;;;;;21.63;95.33;-18608.22;5064034;28;21353;-79
2023/07/01 05:25:22;;;;;;;5.05;2.00;;;;;;;21.59;95.54;-18607.13;5074761;28;20132;-78
2023/07/01 05:27:47;;;;;;;5.50;2.33;;;;;;;21.58;96.50;-18606.88;5061905;28;20041;-79
2023/07/01 05:30:13;;;;;;;4.45;2.17;;;;;;;21.70;95.04;-18610.00;5053783;28;20063;-78
2023/07/01 05:32:38;;;;;;;4.88;2.10;;;;;;;21.53;97.56;-18605.50;5063736;28;20082;-78
2023/07/01 05:35:03;;;;;;;3.53;1.77;;;;;;;21.72;96.62;-18610.53;5061655;28;20466;-81
2023/07/01 05:37:29;;;;;;;5.72;2.20;;;;;;;21.64;97.53;-18608.50;5061038;28;20045;-78
2023/07/01 05:39:54;;;;;;;5.15;2.40;;;;;;;21.52;99.62;-18605.22;5061739;28;20048;-79
2023/07/01 05:42:19;;;;;;;4.22;1.80;;;;;;;21.54;100.00;-18605.78;5065609;28;20131;-80
2023/07/01 05:44:45;;;;;;;4.40;1.98;;;;;;;21.38;100.00;-18601.69;5061155;28;20055;-78
2023/07/01 05:47:10;;;;;;;4.95;2.13;;;;;;;21.37;100.00;-18601.41;5075570;28;20064;-78
2023/07/01 05:49:36;;;;;;;7.32;2.25;;;;;;;21.39;100.00;-18601.97;5059138;28;20055;-80
2023/07/01 05:52:01;;;;;;;6.13;2.28;;;;;;;21.22;100.00;-18597.22;5063029;28;20049;-77
2023/07/01 05:54:26;;;;;;;5.35;2.70;;;;;;;21.11;100.00;-18594.34;5064576;28;20108;-78
2023/07/01 05:56:52;;;;;;;3.92;1.83;;;;;;;21.03;100.00;-18592.19;5056834;28;20557;-80
2023/07/01 05:59:17;;;;;;;3.80;1.40;;;;;;;21.09;100.00;-18593.94;5064327;28;20595;-78
2023/07/01 06:01:42;;;;;;;4.30;2.15;;;;;;;21.17;100.00;-18595.97;5063841;28;20040;-78
2023/07/01 06:04:08;;;;;;;3.30;1.77;;;;;;;21.19;100.00;-18596.53;5055853;28;20051;-79
2023/07/01 06:06:33;;;;;;;3.67;2.03;;;;;;;20.87;100.00;-18588.09;5061338;28;20794;-78
2023/07/01 06:08:58;;;;;;;2.92;1.55;;;;;;;21.02;100.00;-18591.91;5056432;28;20186;-78
2023/07/01 06:11:24;;;;;;;4.78;2.03;;;;;;;21.01;100.00;-18591.63;5055451;28;21234;-77
2023/07/01 06:13:49;;;;;;;7.18;2.10;;;;;;;21.09;100.00;-18593.81;5058475;28;20114;-77
2023/07/01 06:16:15;;;;;;;3.63;1.75;;;;;;;21.03;100.00;-18592.19;5064067;28;20060;-79
2023/07/01 06:18:41;;;;;;;3.40;1.90;;;;;;;20.79;100.00;-18585.78;5056867;28;20046;-78
2023/07/01 06:21:06;;;;;;;3.75;2.10;;;;;;;20.57;100.00;-18579.94;5054606;28;20504;-77
2023/07/01 06:23:36;;;;;;;3.85;2.10;;;;;;;20.58;100.00;-18580.22;5063730;28;20079;-79
2023/07/01 06:26:02;;;;;;;3.78;2.30;;;;;;;20.38;100.00;-18574.91;5060367;28;20045;-79
2023/07/01 06:28:27;;;;;;;4.78;2.60;;;;;;;20.50;100.00;-18578.28;5061059;28;21262;-79
2023/07/01 06:30:53;;;;;;;3.85;2.40;;;;;;;20.32;100.00;-18573.25;5060940;28;20051;-79
2023/07/01 06:33:18;;;;;;;5.15;2.40;;;;;;;20.16;100.00;-18569.19;5058913;28;20033;-78
2023/07/01 06:35:43;;;;;;;4.00;2.60;;;;;;;20.26;100.00;-18571.91;5060804;28;20093;-80
2023/07/01 06:38:09;;;;;;;4.57;2.83;;;;;;;20.10;100.00;-18567.53;5056269;28;20555;-76
2023/07/01 06:40:35;;;;;;;5.05;2.28;;;;;;;19.67;100.00;-18555.97;5069297;28;20421;-76
2023/07/01 06:43:02;;;;;;;4.10;2.47;;;;;;;19.85;100.00;-18560.88;5062820;28;20044;-77
2023/07/01 06:45:28;;;;;;;3.05;1.90;;;;;;;19.92;100.00;-18562.78;5058420;28;20075;-78
2023/07/01 06:47:53;;;;;;;5.43;2.63;;;;;;;19.98;100.00;-18564.41;5061465;28;20492;-77
2023/07/01 06:50:19;;;;;;;5.35;3.00;;;;;;;19.87;100.00;-18561.41;5060176;28;20407;-76
2023/07/01 06:52:44;;;;;;;4.22;2.40;;;;;;;19.84;100.00;-18560.59;5050712;28;20039;-78
2023/07/01 06:55:09;;;;;;;4.85;2.95;;;;;;;19.74;100.00;-18558.00;5055993;28;20105;-78
2023/07/01 06:57:36;;;;;;;3.80;2.58;;;;;;;19.85;100.00;-18560.88;5055610;28;20072;-79
2023/07/01 07:00:03;;;;;;;6.32;3.13;;;;;;;19.97;100.00;-18564.00;5048798;28;20113;-79
2023/07/01 07:02:28;;;;;;;6.68;2.90;;;;;;;20.00;100.00;-18564.97;5062194;28;20043;-77
2023/07/01 07:04:53;;;;;;;4.88;2.80;;;;;;;20.05;100.00;-18566.19;5056864;28;20057;-78
2023/07/01 07:07:19;;;;;;;4.95;2.85;;;;;;;19.92;100.00;-18562.78;5055313;28;20045;-78
2023/07/01 07:09:44;;;;;;;4.18;2.90;;;;;;;19.91;100.00;-18562.50;5055033;28;20444;-78
2023/07/01 07:12:10;;;;;;;5.88;2.88;;;;;;;19.92;100.00;-18562.78;5061209;28;20047;-78
2023/07/01 07:14:35;;;;;;;5.22;2.88;;;;;;;19.77;100.00;-18558.69;5063005;28;20717;-77
2023/07/01 07:17:01;;;;;;;4.95;2.92;;;;;;;19.90;100.00;-18562.22;5058311;28;20040;-79
2023/07/01 07:19:26;;;;;;;4.80;3.05;;;;;;;19.73;100.00;-18557.59;5058207;28;20045;-78
2023/07/01 07:21:52;;;;;;;6.88;3.47;;;;;;;19.85;100.00;-18560.88;5056787;28;20041;-77
2023/07/01 07:24:17;;;;;;;7.63;2.95;;;;;;;19.84;100.00;-18560.59;5073231;28;20040;-77
2023/07/01 07:26:42;;;;;;;5.45;3.45;;;;;;;19.92;100.00;-18562.78;5056158;28;20051;-76
2023/07/01 07:29:08;;;;;;;5.03;3.22;;;;;;;19.91;100.00;-18562.50;5058427;28;20072;-78
2023/07/01 07:31:33;;;;;;;6.13;3.60;;;;;;;19.98;100.00;-18564.28;5064519;28;20044;-81
2023/07/01 07:33:59;;;;;;;6.38;4.07;;;;;;;19.89;100.00;-18561.81;5060680;28;20048;-80
2023/07/01 07:36:24;;;;;;;6.13;3.70;;;;;;;19.95;100.00;-18563.59;5069165;28;20056;-78
2023/07/01 07:38:49;;;;;;;5.43;3.55;;;;;;;19.88;100.00;-18561.56;5063451;28;20045;-78
2023/07/01 07:41:15;;;;;;;5.57;3.78;;;;;;;19.94;100.00;-18563.19;5056367;28;20040;-78
2023/07/01 07:43:41;;;;;;;5.18;3.90;;;;;;;19.88;100.00;-18561.69;5069360;28;20044;-78
2023/07/01 07:46:07;;;;;;;5.28;4.07;;;;;;;19.97;100.00;-18564.00;5063257;28;20838;-80
2023/07/01 07:48:32;;;;;;;5.03;3.90;;;;;;;19.95;100.00;-18563.59;5058473;28;20115;-76
2023/07/01 07:50:58;;;;;;;5.75;3.40;;;;;;;19.87;100.00;-18561.41;5065331;28;20048;-79
2023/07/01 07:53:23;;;;;;;6.80;3.90;;;;;;;19.93;100.00;-18563.06;5066924;28;20045;-77
2023/07/01 07:55:48;;;;;;;5.25;4.07;;;;;;;19.99;100.00;-18564.69;5065517;28;20073;-77
2023/07/01 07:58:14;;;;;;;5.38;3.80;;;;;;;20.04;100.00;-18566.03;5059440;28;20135;-77
2023/07/01 08:00:39;;;;;;;4.75;3.42;;;;;;;19.94;100.00;-18563.19;5056609;28;20041;-78
2023/07/01 08:03:05;;;;;;;5.10;3.95;;;;;;;20.12;100.00;-18567.97;5058210;28;20036;-78
2023/07/01 08:05:30;;;;;;;5.68;3.30;;;;;;;20.16;100.00;-18569.19;5057562;28;20486;-76
2023/07/01 08:07:55;;;;;;;4.47;3.05;;;;;;;20.29;100.00;-18572.72;5057508;28;20597;-78
2023/07/01 08:10:21;;;;;;;4.10;2.72;;;;;;;20.33;100.00;-18573.53;5069481;28;20052;-77
2023/07/01 08:12:46;;;;;;;5.50;2.83;;;;;;;20.45;100.00;-18576.78;5064044;28;20037;-78
2023/07/01 08:15:12;;;;;;;4.20;3.17;;;;;;;20.58;100.00;-18580.22;5067172;28;20045;-77
2023/07/01 08:17:38;;;;;;;3.75;2.58;;;;;;;20.60;100.00;-18580.75;5076127;28;20036;-79
2023/07/01 08:20:04;;;;;;;4.00;2.60;;;;;;;20.57;100.00;-18580.06;5058384;28;20044;-77
2023/07/01 08:22:29;;;;;;;3.53;2.55;;;;;;;20.59;100.00;-18580.63;5064133;28;20055;-77
2023/07/01 08:24:56;;;;;;;4.05;2.88;;;;;;;20.66;100.00;-18582.53;5011223;28;20096;-77
2023/07/01 08:27:21;;;;;;;4.43;2.30;;;;;;;20.67;100.00;-18582.66;5019756;28;20453;-77
2023/07/01 08:29:47;;;;;;;4.45;2.33;;;;;;;20.47;100.00;-18577.34;5014831;28;20120;-79
2023/07/01 08:32:12;;;;;;;5.28;3.00;;;;;;;20.64;100.00;-18581.84;5022085;28;20052;-78
2023/07/01 08:34:37;;;;;;;3.22;2.20;;;;;;;20.48;100.00;-18577.75;5022289;28;20076;-77
2023/07/01 08:37:03;;;;;;;4.15;2.70;;;;;;;20.49;100.00;-18578.03;5007031;28;20045;-79
2023/07/01 08:39:28;;;;;;;3.25;2.55;;;;;;;20.56;100.00;-18579.66;5020375;28;20448;-77
2023/07/01 08:41:59;;;;;;;3.30;2.22;;;;;;;20.49;100.00;-18578.03;5007001;28;20042;-77
2023/07/01 08:44:25;;;;;;;3.20;2.33;;;;;;;20.49;100.00;-18578.03;5007510;28;20128;-78
2023/07/01 08:46:55;;;;;;;3.38;2.40;;;;;;;20.65;100.00;-18582.09;5023397;28;20033;-77
2023/07/01 08:49:22;;;;;;;3.30;2.40;;;;;;;20.61;100.00;-18581.16;5024318;28;20094;-77
2023/07/01 08:51:54;;;;;;;3.25;2.45;;;;;;;20.58;100.00;-18580.22;5007861;28;20049;-77
2023/07/01 08:54:20;;;;;;;3.40;2.33;;;;;;;20.51;100.00;-18578.56;5023840;28;20041;-77
2023/07/01 08:56:48;;;;;;;3.10;2.05;;;;;;;20.42;100.00;-18576.13;5055541;28;20068;-79
2023/07/01 08:59:14;;;;;;;3.22;2.65;;;;;;;20.59;100.00;-18580.47;5066812;28;20033;-78
2023/07/01 09:01:42;;;;;;;4.78;2.70;;;;;;;20.66;100.00;-18582.38;5066569;28;20044;-78
2023/07/01 09:04:07;;;;;;;3.45;2.67;;;;;;;20.83;100.00;-18587.00;5066406;28;20052;-78
2023/07/01 09:06:33;;;;;;;4.35;2.30;;;;;;;20.57;100.00;-18579.94;5066646;28;20032;-78
2023/07/01 09:08:58;;;;;;;3.28;2.20;;;;;;;20.76;100.00;-18584.97;5066992;28;20056;-78
2023/07/01 09:11:23;;;;;;;3.05;2.17;;;;;;;20.70;100.00;-18583.47;5095353;28;20042;-76
2023/07/01 09:13:55;;;;;;;3.53;2.38;;;;;;;20.78;100.00;-18585.50;5091272;28;20040;-78
2023/07/01 09:16:34;;;;;;;5.55;2.40;;;;;;;20.75;100.00;-18584.69;5069109;28;20555;-77
2023/07/01 09:19:10;;;;;;;4.43;2.13;;;;;;;20.74;100.00;-18584.56;5066840;28;20110;-79
2023/07/01 09:21:37;;;;;;;4.50;2.90;;;;;;;20.86;100.00;-18587.81;5082476;28;20036;-78
2023/07/01 09:24:08;;;;;;;5.00;3.13;;;;;;;20.90;100.00;-18588.78;5066925;28;20504;-78
2023/07/01 09:26:33;;;;;;;4.78;2.67;;;;;;;20.89;100.00;-18588.63;5068722;28;20040;-77
2023/07/01 09:29:06;;;;;;;4.85;3.70;;;;;;;21.01;100.00;-18591.78;5066921;28;20045;-78
2023/07/01 09:31:43;;;;;;;4.97;3.45;;;;;;;20.86;100.00;-18587.69;5071019;28;20464;-78
2023/07/01 09:34:09;;;;;;;4.75;3.22;;;;;;;20.80;100.00;-18586.19;5068281;28;20037;-79
2023/07/01 09:36:34;;;;;;;5.57;3.45;;;;;;;20.81;100.00;-18586.47;5070522;28;20036;-77
2023/07/01 09:39:01;;;;;;;4.75;3.75;;;;;;;20.89;100.00;-18588.63;5069012;28;20044;-78
2023/07/01 09:41:27;;;;;;;4.68;3.88;;;;;;;21.00;100.00;-18591.34;5085919;28;20050;-76
2023/07/01 09:43:54;;;;;;;4.75;3.83;;;;;;;20.84;100.00;-18587.28;5067658;28;20032;-78
2023/07/01 09:46:20;;;;;;;6.22;4.20;;;;;;;20.92;100.00;-18589.31;5069868;28;20048;-77
2023/07/01 09:48:55;;;;;;;5.97;3.67;;;;;;;20.89;100.00;-18588.63;5067671;28;20462;-80
2023/07/01 09:51:22;;;;;;;6.45;4.47;;;;;;;20.99;100.00;-18591.09;5071213;28;20102;-77
2023/07/01 09:53:48;;;;;;;5.35;4.13;;;;;;;20.89;100.00;-18588.50;5068398;28;20033;-78
2023/07/01 09:56:16;;;;;;;8.68;4.68;;;;;;;20.99;100.00;-18591.09;5071074;28;20108;-79
2023/07/01 09:58:42;;;;;;;6.32;4.78;;;;;;;20.99;100.00;-18591.09;5070235;28;20045;-78
2023/07/01 10:01:08;;;;;;;5.60;4.43;;;;;;;20.93;100.00;-18589.59;5071294;28;20052;-77
2023/07/01 10:03:33;;;;;;;5.95;4.47;;;;;;;21.02;100.00;-18592.03;5085724;28;20037;-78
2023/07/01 10:05:59;;;;;;;5.80;4.70;;;;;;;21.13;100.00;-18594.91;5063169;28;20037;-78
2023/07/01 10:08:24;;;;;;;7.75;5.13;;;;;;;21.23;100.00;-18597.63;5062101;28;20054;-78
2023/07/01 10:10:59;;;;;;;5.93;4.88;;;;;;;21.27;100.00;-18598.56;5060800;28;20037;-78
2023/07/01 10:13:26;;;;;;;5.45;4.68;;;;;;;21.30;100.00;-18599.53;5066841;28;20032;-78
2023/07/01 10:15:52;;;;;;;6.22;4.95;;;;;;;21.33;100.00;-18600.34;5067023;28;20045;-77
2023/07/01 10:18:21;;;;;;;5.63;3.90;;;;;;;21.16;100.00;-18595.72;5063474;28;20048;-78
2023/07/01 10:20:48;;;;;;;5.32;4.43;;;;;;;21.24;100.00;-18597.88;5080967;28;20078;-78
2023/07/01 10:23:13;;;;;;;6.05;4.35;;;;;;;21.31;100.00;-18599.78;5064666;28;20583;-77
2023/07/01 10:25:43;;;;;;;6.50;4.45;;;;;;;21.18;100.00;-18596.25;5064609;28;20131;-78
2023/07/01 10:28:10;;;;;;;5.75;4.68;;;;;;;21.26;100.00;-18598.44;5057257;28;20090;-77
2023/07/01 10:30:42;;;;;;;5.68;4.57;;;;;;;21.23;100.00;-18597.63;5066210;28;20500;-78
2023/07/01 10:33:39;;;;;;;5.70;4.60;;;;;;;21.37;100.00;-18601.28;5068668;28;20048;-78
2023/07/01 10:36:17;;;;;;;5.63;4.90;;;;;;;21.33;100.00;-18600.19;5083642;28;20036;-79
2023/07/01 10:38:43;;;;;;;8.23;5.68;;;;;;;21.59;100.00;-18607.13;5068202;28;20048;-78
2023/07/01 10:41:09;;;;;;;5.90;4.97;;;;;;;21.58;100.00;-18607.00;5086330;28;20049;-79
2023/07/01 10:43:38;;;;;;;6.22;4.63;;;;;;;21.56;100.00;-18606.44;5065629;28;20053;-80
2023/07/01 10:46:20;;;;;;;7.80;5.78;;;;;;;21.65;100.00;-18608.63;5065711;28;20041;-77
2023/07/01 10:49:07;;;;;;;6.20;4.95;;;;;;;21.49;100.00;-18604.41;5058350;28;20040;-78
2023/07/01 10:51:45;;;;;;;6.40;5.40;;;;;;;21.48;100.00;-18604.16;5076826;28;20049;-78
2023/07/01 10:54:10;;;;;;;7.80;5.97;;;;;;;21.50;100.00;-18604.69;5059244;28;20052;-77
2023/07/01 10:57:01;;;;;;;7.97;6.30;;;;;;;21.48;100.00;-18604.16;5059495;28;20711;-78
2023/07/01 10:59:26;;;;;;;7.70;6.28;;;;;;;21.53;100.00;-18605.63;5047450;28;20045;-77
2023/07/01 11:01:59;;;;;;;7.30;5.95;;;;;;;21.57;100.00;-18606.72;5057904;28;20526;-79
2023/07/01 11:04:44;;;;;;;7.05;6.05;;;;;;;21.37;100.00;-18601.41;5059162;28;20123;-77
2023/07/01 11:07:10;;;;;;;7.75;6.70;;;;;;;21.58;100.00;-18607.00;5058030;28;20051;-79
2023/07/01 11:09:36;;;;;;;6.82;5.72;;;;;;;21.38;100.00;-18601.56;5059749;28;20411;-79
2023/07/01 11:12:06;;;;;;;7.07;5.90;;;;;;;21.32;100.00;-18600.06;5058517;28;20057;-78
2023/07/01 11:14:38;;;;;;;10.38;6.40;;;;;;;21.50;100.00;-18604.81;5060709;28;20032;-78
2023/07/01 11:17:10;;;;;;;6.57;5.45;;;;;;;21.33;100.00;-18600.19;5058349;28;20051;-78
2023/07/01 11:19:36;;;;;;;8.27;5.80;;;;;;;21.44;100.00;-18603.06;5059553;28;20056;-80
2023/07/01 11:22:02;;;;;;;7.90;5.45;;;;;;;21.49;100.00;-18604.56;5062647;28;20041;-80